Bethpage, NY (11714)

7:47 PM EST on December 07, 2016 (GMT -0500)
Bethpage | | Change Station

Elev 125 ft 40.75 °N, 73.50 °W | Updated 1 minute ago

Clear
Clear
42.8 °F
Feels Like 43 °F
N
2.0
Wind Variable Wind from WNW
Gusts 4.2 mph

Today
High -- | Low -- °F
--% Chance of Precip.
Yesterday
High -- | Low -- °F
Precip. -- in
Pressure 30.04 in
Visibility 10.0 miles
Clouds Clear
Windchill 43 °F
Dew Point 32 °F
Humidity 65%
Rainfall 0.00 in
Snow Depth Not available.
7:04 AM 4:26 PM
First Quarter, 57% visible
METAR KFRG 072353Z 00000KT 10SM CLR 07/02 A3004 RMK AO2 SLP171 T00670022 10072 20067 50016
Pressure 30.04 in
Visibility 10.0 miles
Clouds Clear
Windchill 43 °F
Dew Point 32 °F
Humidity 65%
Rainfall 0.00 in
Snow Depth Not available.
7:04 AM 4:26 PM
First Quarter, 57% visible
METAR KFRG 072353Z 00000KT 10SM CLR 07/02 A3004 RMK AO2 SLP171 T00670022 10072 20067 50016

10-Day Weather Forecast

Almanac

Astronomy

Dec. 07, 2016 Rise Set
Actual Time
Civil Twilight
Nautical Twilight
Astronomical Twilight
Moon
Length of Visible Light
Length of Day
Tomorrow will be .
, % of the Moon is Illuminated

Today's Extremes

State Highs State Lows

Community

WunderPhotos

Upload Photos

1,956,237 photos uploaded!

WunderBlog® & News

Nearby

Air Quality

  Air Quality AQ Index Pollutant
Not available.

Snow Depth

Station Depth Elevation

Earthquake Activity

City Distance Mag. Time & Date
Minimum magnitude displayed is 2.5.

Coastal Water Temperatures

Place Temperature

Stations

Nearby Weather Stations

Station Location Temp. Windchill Dew Point Humidity Wind Precip. Elev Updated Type
                   

Watches & Warnings

There are currently no watches in effect.